CSAV Lonquen — A8OT2 — position and weather

sailwx.info

Track history (hours):
 
Tides and Currents Weather Stations Pressure Air Temp Water Temp Dewpoint Dewpoint Depression Visibility Wind Speed Wind Dir Waves Ship Positions

CSAV Lonquen

Last reported at 2015-Aug-02 21:26 UTC. Time now 2015-Aug-02 22:31 UTC.
Position N 51°21' E 004°16'.

Length 261 m; draft 10.2 m.

Type: Ship (hazmat cat A). MMSI: 636091501.

Date/timePositionNaut miles runAvg speedWind from/ knotsBaromVisibWave heightAir tempDewpointWater temp
2015-Aug-02 21:26N 51°21' E 004°16'0 0.0
2015-Aug-02 20:31N 51°21' E 004°16'0 0.0
2015-Aug-02 19:33N 51°21' E 004°16'1 1.0
2015-Aug-02 18:33N 51°21' E 004°14'9 9.0
2015-Aug-02 17:33N 51°26' E 004°01'1111.3
2015-Aug-02 16:34N 51°22' E 003°44'1010.1
2015-Aug-02 15:33N 51°25' E 003°28'1818.2
2015-Aug-02 14:33N 51°26' E 002°59'1817.7
2015-Aug-02 13:34N 51°41' E 003°14'7 6.6
2015-Aug-02 12:33N 51°48' E 003°16'9 9.4
2015-Aug-02 11:33N 51°57' E 003°20'1010.3
2015-Aug-02 10:33N 52°07' E 003°22'1010.1
2015-Aug-02 09:33N 52°17' E 003°24'1010.3
2015-Aug-02 08:33N 52°27' E 003°27'1111.0
2015-Aug-02 07:33N 52°38' E 003°32'1110.6
2015-Aug-02 06:33N 52°46' E 003°43'1110.5
2015-Aug-02 05:29N 52°55' E 003°55'1010.4
2015-Aug-02 04:33N 53°02' E 004°06'1010.4
2015-Aug-02 03:33N 53°08' E 004°20'10 9.9
2015-Aug-02 02:32N 53°17' E 004°29'1110.3
2015-Aug-02 01:26N 53°27' E 004°37'910.2
2015-Aug-02 00:34N 53°31' E 004°50'1110.6
2015-Aug-01 23:34N 53°36' E 005°06'1010.3
2015-Aug-01 22:34N 53°38' E 005°23'1010.3
2015-Aug-01 21:33N 53°41' E 005°40'1010.4
2015-Aug-01 20:33N 53°44' E 005°57'1010.1
2015-Aug-01 19:33N 53°48' E 006°13'2010.1
2015-Aug-01 17:32N 53°53' E 006°46'1111.2
2015-Aug-01 16:32N 53°56' E 007°04'1111.4
2015-Aug-01 15:33N 53°58' E 007°23'1010.0
2015-Aug-01 14:33N 53°58' E 007°40'1010.3
2015-Aug-01 13:33N 53°52' E 007°54'1817.7
2015-Aug-01 12:33N 53°42' E 008°19'10 9.7
2015-Aug-01 11:33N 53°36' E 008°31'0 0.0
2015-Aug-01 10:33N 53°36' E 008°31'0 0.0
2015-Aug-01 09:33N 53°36' E 008°31'0 0.0
2015-Aug-01 08:33N 53°36' E 008°31'0 0.0
2015-Aug-01 07:33N 53°36' E 008°31'0 0.0
2015-Aug-01 06:33N 53°36' E 008°31'0 0.0
2015-Aug-01 05:33N 53°36' E 008°31'0 0.0
2015-Aug-01 04:33N 53°36' E 008°31'0 0.0
2015-Aug-01 03:33N 53°36' E 008°31'0 0.0
2015-Aug-01 02:33N 53°36' E 008°31'0 0.0
2015-Aug-01 01:33N 53°36' E 008°31'0 0.0
2015-Aug-01 00:33N 53°36' E 008°31'0 0.0
2015-Jul-31 23:33N 53°36' E 008°31'0 0.0
2015-Jul-31 22:33N 53°36' E 008°31'0 0.0
2015-Jul-31 21:33N 53°36' E 008°31'0 0.0
2015-Jul-31 20:33N 53°36' E 008°31'0 0.0
2015-Jul-31 19:33N 53°36' E 008°31'9 9.0
2015-Jul-31 18:33N 53°42' E 008°20'1515.3
2015-Jul-31 17:33N 53°51' E 007°60'8 8.1
2015-Jul-31 16:33N 53°54' E 007°47'0 0.1
2015-Jul-31 15:33N 53°54' E 007°47'0 0.0
2015-Jul-31 14:33N 53°54' E 007°47'0 0.1
2015-Jul-31 13:17N 53°54' E 007°47'0 0.1
2015-Jul-31 12:30N 53°54' E 007°47'0 0.0
2015-Jul-31 11:27N 53°54' E 007°47'0 0.0
2015-Jul-31 10:33N 53°54' E 007°47'0 0.0
2015-Jul-31 09:33N 53°54' E 007°47'0 0.0
2015-Jul-31 08:24N 53°54' E 007°47'0 0.0
2015-Jul-31 07:27N 53°54' E 007°47'0 0.0
2015-Jul-31 06:27N 53°54' E 007°47'0 0.0
2015-Jul-31 05:30N 53°54' E 007°47'0 0.0
2015-Jul-31 04:30N 53°54' E 007°47'0 0.0
2015-Jul-31 02:30N 53°54' E 007°47'0 0.0
2015-Jul-31 01:24N 53°54' E 007°47'0 0.0
2015-Jul-31 00:18N 53°54' E 007°47'0 0.0
2015-Jul-30 23:30N 53°54' E 007°47'0 0.0
2015-Jul-30 22:33N 53°54' E 007°47'5 5.0
2015-Jul-30 21:33N 53°54' E 007°39'1110.6
2015-Jul-30 20:33N 53°53' E 007°21'1110.7
2015-Jul-30 19:33N 53°51' E 007°04'1610.8
2015-Jul-30 18:04N 53°47' E 006°37'610.8
2015-Jul-30 17:33N 53°46' E 006°28'1010.4
2015-Jul-30 16:33N 53°43' E 006°11'10 9.6
2015-Jul-30 15:33N 53°40' E 005°55'9 9.0
2015-Jul-30 14:34N 53°37' E 005°41'9 8.5
2015-Jul-30 13:34N 53°34' E 005°28'8 8.2
2015-Jul-30 12:34N 53°32' E 005°14'8 8.3
2015-Jul-30 11:33N 53°29' E 005°01'8 8.2
2015-Jul-30 10:34N 53°25' E 004°49'8 7.6
2015-Jul-30 09:34N 53°20' E 004°40'10 7.6
2015-Jul-30 08:13N 53°11' E 004°31'5 7.7
2015-Jul-30 07:34N 53°07' E 004°27'8 7.9
2015-Jul-30 06:33N 52°60' E 004°21'8 8.0
2015-Jul-30 05:33N 52°52' E 004°16'9 8.7
2015-Jul-30 04:34N 52°45' E 004°09'9 9.4
2015-Jul-30 03:34N 52°37' E 004°01'10 9.7
2015-Jul-30 02:34N 52°28' E 003°54'1010.0
2015-Jul-30 01:33N 52°18' E 003°52'1010.0
2015-Jul-30 00:34N 52°08' E 003°55'8 8.0
2015-Jul-29 23:33N 52°01' E 003°59'1110.8
2015-Jul-29 22:34N 51°55' E 004°14'8 7.5
2015-Jul-29 21:33N 51°54' E 004°26'1 0.6
2015-Jul-29 20:31N 51°53' E 004°26'0 0.0
2015-Jul-29 19:31N 51°53' E 004°26'0 0.0
2015-Jul-29 18:31N 51°53' E 004°26'0 0.0
2015-Jul-29 17:31N 51°53' E 004°26'0 0.0
2015-Jul-29 16:31N 51°53' E 004°26'0 0.0
2015-Jul-29 15:31N 51°53' E 004°26'0 0.0
2015-Jul-29 14:31N 51°53' E 004°26'0 0.0
2015-Jul-29 13:31N 51°53' E 004°26'0 0.0
2015-Jul-29 12:31N 51°53' E 004°26'0 0.0
2015-Jul-29 11:31N 51°53' E 004°26'0 0.0
2015-Jul-29 10:31N 51°53' E 004°26'0 0.0
2015-Jul-29 09:31N 51°53' E 004°26'0 0.0
2015-Jul-29 08:31N 51°53' E 004°26'0 0.0
2015-Jul-29 07:31N 51°53' E 004°26'0 0.0
2015-Jul-29 06:31N 51°53' E 004°26'0 0.0
2015-Jul-29 05:31N 51°53' E 004°26'0 0.0
2015-Jul-29 04:31N 51°53' E 004°26'0 0.0
2015-Jul-29 03:31N 51°53' E 004°26'0 0.0
2015-Jul-29 02:31N 51°53' E 004°26'0 0.4
2015-Jul-29 01:33N 51°54' E 004°26'7 7.2
2015-Jul-29 00:33N 51°55' E 004°15'1312.8
2015-Jul-28 23:33N 52°00' E 003°56'8 8.4
2015-Jul-28 22:34N 51°58' E 003°43'1211.4
2015-Jul-28 21:30N 51°55' E 003°24'4210.7
2015-Jul-28 17:33N 51°48' E 002°17'3 2.7
2015-Jul-28 16:33N 51°51' E 002°14'8 8.4
2015-Jul-28 15:33N 51°51' E 002°01'10 9.7
2015-Jul-28 14:34N 51°49' E 001°46'9 9.0
2015-Jul-28 13:33N 51°54' E 001°34'1010.1
2015-Jul-28 12:32N 51°58' E 001°18'0 0.0
2015-Jul-28 11:32N 51°58' E 001°18'0 0.0
2015-Jul-28 10:32N 51°58' E 001°18'0 0.0
2015-Jul-28 09:32N 51°58' E 001°18'0 0.0
2015-Jul-28 08:32N 51°58' E 001°18'0 0.0
2015-Jul-28 07:32N 51°58' E 001°18'0 0.0
2015-Jul-28 06:32N 51°58' E 001°18'0 0.0
2015-Jul-28 05:32N 51°58' E 001°18'0 0.0
2015-Jul-28 04:32N 51°58' E 001°18'0 0.0
2015-Jul-28 03:32N 51°58' E 001°18'0 0.0
2015-Jul-28 02:32N 51°58' E 001°18'0 0.0
2015-Jul-28 01:32N 51°58' E 001°18'0 0.0
2015-Jul-28 00:32N 51°58' E 001°18'0 0.0
2015-Jul-27 23:32N 51°58' E 001°18'0 0.0
2015-Jul-27 22:32N 51°58' E 001°18'0 0.0
2015-Jul-27 21:32N 51°58' E 001°18'0 0.0
2015-Jul-27 20:32N 51°58' E 001°18'0 0.0
2015-Jul-27 19:32N 51°58' E 001°18'0 0.0
2015-Jul-27 18:32N 51°58' E 001°18'1 0.7
2015-Jul-27 17:33N 51°57' E 001°19'1010.3
2015-Jul-27 16:33N 51°53' E 001°34'9 8.7
2015-Jul-27 15:33N 51°51' E 001°48'10 9.8
2015-Jul-27 14:33N 51°41' E 001°50'1110.9
2015-Jul-27 13:33N 51°30' E 001°48'1111.3
2015-Jul-27 12:33N 51°19' E 001°44'1211.6
2015-Jul-27 11:34N 51°08' E 001°44'1514.6
2015-Jul-27 10:34N 50°57' E 001°27'3214.3
2015-Jul-27 08:19N 50°32' E 000°57'3115.2
2015-Jul-27 06:16N 50°24' E 000°10'73315.0
2015-Jul-25 05:30N 40°24' W 009°50'1515.7
2015-Jul-25 04:33N 40°09' W 009°50'2115.6
2015-Jul-25 03:11N 39°48' W 009°50'2615.8
2015-Jul-25 01:33N 39°22' W 009°50'1615.7
2015-Jul-25 00:33N 39°07' W 009°51'1616.0
2015-Jul-24 23:34N 38°51' W 009°51'1616.1
2015-Jul-24 22:33N 38°35' W 009°49'1616.1
2015-Jul-24 21:34N 38°19' W 009°44'1615.6
2015-Jul-24 20:33N 38°03' W 009°41'1515.3
2015-Jul-24 19:33N 37°49' W 009°36'1616.2
2015-Jul-24 18:33N 37°33' W 009°31'1616.0
2015-Jul-24 17:33N 37°17' W 009°27'1615.8
2015-Jul-24 16:33N 37°02' W 009°22'1615.5
2015-Jul-24 15:33N 36°48' W 009°14'3415.9
2015-Jul-24 13:26N 36°35' W 008°35'1916.0
2015-Jul-24 12:14N 36°30' W 008°12'1116.1
2015-Jul-24 11:33N 36°27' W 007°59'3716.3
2015-Jul-24 09:16N 36°15' W 007°15'1216.7
2015-Jul-24 08:33N 36°11' W 007°01'7216.7
2015-Jul-24 04:15N 35°59' W 005°34'  
Track history (hours):
 
Tides and Currents Weather Stations Pressure Air Temp Water Temp Dewpoint Dewpoint Depression Visibility Wind Speed Wind Dir Waves Ship Positions

CSAV Lonquen

Last reported at 2015-Aug-02 21:26 UTC. Time now 2015-Aug-02 22:31 UTC.
Position N 51°21' E 004°16'.

Length 261 m; draft 10.2 m.

Type: Ship (hazmat cat A). MMSI: 636091501.

Date/timePositionNaut miles runAvg speedWind from/ knotsBaromVisibWave heightAir tempDewpointWater temp
2015-Aug-02 21:26N 51°21' E 004°16'0 0.0
2015-Aug-02 20:31N 51°21' E 004°16'0 0.0
2015-Aug-02 19:33N 51°21' E 004°16'1 1.0
2015-Aug-02 18:33N 51°21' E 004°14'9 9.0
2015-Aug-02 17:33N 51°26' E 004°01'1111.3
2015-Aug-02 16:34N 51°22' E 003°44'1010.1
2015-Aug-02 15:33N 51°25' E 003°28'1818.2
2015-Aug-02 14:33N 51°26' E 002°59'1817.7
2015-Aug-02 13:34N 51°41' E 003°14'7 6.6
2015-Aug-02 12:33N 51°48' E 003°16'9 9.4
2015-Aug-02 11:33N 51°57' E 003°20'1010.3
2015-Aug-02 10:33N 52°07' E 003°22'1010.1
2015-Aug-02 09:33N 52°17' E 003°24'1010.3
2015-Aug-02 08:33N 52°27' E 003°27'1111.0
2015-Aug-02 07:33N 52°38' E 003°32'1110.6
2015-Aug-02 06:33N 52°46' E 003°43'1110.5
2015-Aug-02 05:29N 52°55' E 003°55'1010.4
2015-Aug-02 04:33N 53°02' E 004°06'1010.4
2015-Aug-02 03:33N 53°08' E 004°20'10 9.9
2015-Aug-02 02:32N 53°17' E 004°29'1110.3
2015-Aug-02 01:26N 53°27' E 004°37'910.2
2015-Aug-02 00:34N 53°31' E 004°50'1110.6
2015-Aug-01 23:34N 53°36' E 005°06'1010.3
2015-Aug-01 22:34N 53°38' E 005°23'1010.3
2015-Aug-01 21:33N 53°41' E 005°40'1010.4
2015-Aug-01 20:33N 53°44' E 005°57'1010.1
2015-Aug-01 19:33N 53°48' E 006°13'2010.1
2015-Aug-01 17:32N 53°53' E 006°46'1111.2
2015-Aug-01 16:32N 53°56' E 007°04'1111.4
2015-Aug-01 15:33N 53°58' E 007°23'1010.0
2015-Aug-01 14:33N 53°58' E 007°40'1010.3
2015-Aug-01 13:33N 53°52' E 007°54'1817.7
2015-Aug-01 12:33N 53°42' E 008°19'10 9.7
2015-Aug-01 11:33N 53°36' E 008°31'0 0.0
2015-Aug-01 10:33N 53°36' E 008°31'0 0.0
2015-Aug-01 09:33N 53°36' E 008°31'0 0.0
2015-Aug-01 08:33N 53°36' E 008°31'0 0.0
2015-Aug-01 07:33N 53°36' E 008°31'0 0.0
2015-Aug-01 06:33N 53°36' E 008°31'0 0.0
2015-Aug-01 05:33N 53°36' E 008°31'0 0.0
2015-Aug-01 04:33N 53°36' E 008°31'0 0.0
2015-Aug-01 03:33N 53°36' E 008°31'0 0.0
2015-Aug-01 02:33N 53°36' E 008°31'0 0.0
2015-Aug-01 01:33N 53°36' E 008°31'0 0.0
2015-Aug-01 00:33N 53°36' E 008°31'0 0.0
2015-Jul-31 23:33N 53°36' E 008°31'0 0.0
2015-Jul-31 22:33N 53°36' E 008°31'0 0.0
2015-Jul-31 21:33N 53°36' E 008°31'0 0.0
2015-Jul-31 20:33N 53°36' E 008°31'0 0.0
2015-Jul-31 19:33N 53°36' E 008°31'9 9.0
2015-Jul-31 18:33N 53°42' E 008°20'1515.3
2015-Jul-31 17:33N 53°51' E 007°60'8 8.1
2015-Jul-31 16:33N 53°54' E 007°47'0 0.1
2015-Jul-31 15:33N 53°54' E 007°47'0 0.0
2015-Jul-31 14:33N 53°54' E 007°47'0 0.1
2015-Jul-31 13:17N 53°54' E 007°47'0 0.1
2015-Jul-31 12:30N 53°54' E 007°47'0 0.0
2015-Jul-31 11:27N 53°54' E 007°47'0 0.0
2015-Jul-31 10:33N 53°54' E 007°47'0 0.0
2015-Jul-31 09:33N 53°54' E 007°47'0 0.0
2015-Jul-31 08:24N 53°54' E 007°47'0 0.0
2015-Jul-31 07:27N 53°54' E 007°47'0 0.0
2015-Jul-31 06:27N 53°54' E 007°47'0 0.0
2015-Jul-31 05:30N 53°54' E 007°47'0 0.0
2015-Jul-31 04:30N 53°54' E 007°47'0 0.0
2015-Jul-31 02:30N 53°54' E 007°47'0 0.0
2015-Jul-31 01:24N 53°54' E 007°47'0 0.0
2015-Jul-31 00:18N 53°54' E 007°47'0 0.0
2015-Jul-30 23:30N 53°54' E 007°47'0 0.0
2015-Jul-30 22:33N 53°54' E 007°47'5 5.0
2015-Jul-30 21:33N 53°54' E 007°39'1110.6
2015-Jul-30 20:33N 53°53' E 007°21'1110.7
2015-Jul-30 19:33N 53°51' E 007°04'1610.8
2015-Jul-30 18:04N 53°47' E 006°37'610.8
2015-Jul-30 17:33N 53°46' E 006°28'1010.4
2015-Jul-30 16:33N 53°43' E 006°11'10 9.6
2015-Jul-30 15:33N 53°40' E 005°55'9 9.0
2015-Jul-30 14:34N 53°37' E 005°41'9 8.5
2015-Jul-30 13:34N 53°34' E 005°28'8 8.2
2015-Jul-30 12:34N 53°32' E 005°14'8 8.3
2015-Jul-30 11:33N 53°29' E 005°01'8 8.2
2015-Jul-30 10:34N 53°25' E 004°49'8 7.6
2015-Jul-30 09:34N 53°20' E 004°40'10 7.6
2015-Jul-30 08:13N 53°11' E 004°31'5 7.7
2015-Jul-30 07:34N 53°07' E 004°27'8 7.9
2015-Jul-30 06:33N 52°60' E 004°21'8 8.0
2015-Jul-30 05:33N 52°52' E 004°16'9 8.7
2015-Jul-30 04:34N 52°45' E 004°09'9 9.4
2015-Jul-30 03:34N 52°37' E 004°01'10 9.7
2015-Jul-30 02:34N 52°28' E 003°54'1010.0
2015-Jul-30 01:33N 52°18' E 003°52'1010.0
2015-Jul-30 00:34N 52°08' E 003°55'8 8.0
2015-Jul-29 23:33N 52°01' E 003°59'1110.8
2015-Jul-29 22:34N 51°55' E 004°14'8 7.5
2015-Jul-29 21:33N 51°54' E 004°26'1 0.6
2015-Jul-29 20:31N 51°53' E 004°26'0 0.0
2015-Jul-29 19:31N 51°53' E 004°26'0 0.0
2015-Jul-29 18:31N 51°53' E 004°26'0 0.0
2015-Jul-29 17:31N 51°53' E 004°26'0 0.0
2015-Jul-29 16:31N 51°53' E 004°26'0 0.0
2015-Jul-29 15:31N 51°53' E 004°26'0 0.0
2015-Jul-29 14:31N 51°53' E 004°26'0 0.0
2015-Jul-29 13:31N 51°53' E 004°26'0 0.0
2015-Jul-29 12:31N 51°53' E 004°26'0 0.0
2015-Jul-29 11:31N 51°53' E 004°26'0 0.0
2015-Jul-29 10:31N 51°53' E 004°26'0 0.0
2015-Jul-29 09:31N 51°53' E 004°26'0 0.0
2015-Jul-29 08:31N 51°53' E 004°26'0 0.0
2015-Jul-29 07:31N 51°53' E 004°26'0 0.0
2015-Jul-29 06:31N 51°53' E 004°26'0 0.0
2015-Jul-29 05:31N 51°53' E 004°26'0 0.0
2015-Jul-29 04:31N 51°53' E 004°26'0 0.0
2015-Jul-29 03:31N 51°53' E 004°26'0 0.0
2015-Jul-29 02:31N 51°53' E 004°26'0 0.4
2015-Jul-29 01:33N 51°54' E 004°26'7 7.2
2015-Jul-29 00:33N 51°55' E 004°15'1312.8
2015-Jul-28 23:33N 52°00' E 003°56'8 8.4
2015-Jul-28 22:34N 51°58' E 003°43'1211.4
2015-Jul-28 21:30N 51°55' E 003°24'4210.7
2015-Jul-28 17:33N 51°48' E 002°17'3 2.7
2015-Jul-28 16:33N 51°51' E 002°14'8 8.4
2015-Jul-28 15:33N 51°51' E 002°01'10 9.7
2015-Jul-28 14:34N 51°49' E 001°46'9 9.0
2015-Jul-28 13:33N 51°54' E 001°34'1010.1
2015-Jul-28 12:32N 51°58' E 001°18'0 0.0
2015-Jul-28 11:32N 51°58' E 001°18'0 0.0
2015-Jul-28 10:32N 51°58' E 001°18'0 0.0
2015-Jul-28 09:32N 51°58' E 001°18'0 0.0
2015-Jul-28 08:32N 51°58' E 001°18'0 0.0
2015-Jul-28 07:32N 51°58' E 001°18'0 0.0
2015-Jul-28 06:32N 51°58' E 001°18'0 0.0
2015-Jul-28 05:32N 51°58' E 001°18'0 0.0
2015-Jul-28 04:32N 51°58' E 001°18'0 0.0
2015-Jul-28 03:32N 51°58' E 001°18'0 0.0
2015-Jul-28 02:32N 51°58' E 001°18'0 0.0
2015-Jul-28 01:32N 51°58' E 001°18'0 0.0
2015-Jul-28 00:32N 51°58' E 001°18'0 0.0
2015-Jul-27 23:32N 51°58' E 001°18'0 0.0
2015-Jul-27 22:32N 51°58' E 001°18'0 0.0
2015-Jul-27 21:32N 51°58' E 001°18'0 0.0
2015-Jul-27 20:32N 51°58' E 001°18'0 0.0
2015-Jul-27 19:32N 51°58' E 001°18'0 0.0
2015-Jul-27 18:32N 51°58' E 001°18'1 0.7
2015-Jul-27 17:33N 51°57' E 001°19'1010.3
2015-Jul-27 16:33N 51°53' E 001°34'9 8.7
2015-Jul-27 15:33N 51°51' E 001°48'10 9.8
2015-Jul-27 14:33N 51°41' E 001°50'1110.9
2015-Jul-27 13:33N 51°30' E 001°48'1111.3
2015-Jul-27 12:33N 51°19' E 001°44'1211.6
2015-Jul-27 11:34N 51°08' E 001°44'1514.6
2015-Jul-27 10:34N 50°57' E 001°27'3214.3
2015-Jul-27 08:19N 50°32' E 000°57'3115.2
2015-Jul-27 06:16N 50°24' E 000°10'73315.0
2015-Jul-25 05:30N 40°24' W 009°50'1515.7
2015-Jul-25 04:33N 40°09' W 009°50'2115.6
2015-Jul-25 03:11N 39°48' W 009°50'2615.8
2015-Jul-25 01:33N 39°22' W 009°50'1615.7
2015-Jul-25 00:33N 39°07' W 009°51'1616.0
2015-Jul-24 23:34N 38°51' W 009°51'1616.1
2015-Jul-24 22:33N 38°35' W 009°49'1616.1
2015-Jul-24 21:34N 38°19' W 009°44'1615.6
2015-Jul-24 20:33N 38°03' W 009°41'1515.3
2015-Jul-24 19:33N 37°49' W 009°36'1616.2
2015-Jul-24 18:33N 37°33' W 009°31'1616.0
2015-Jul-24 17:33N 37°17' W 009°27'1615.8
2015-Jul-24 16:33N 37°02' W 009°22'1615.5
2015-Jul-24 15:33N 36°48' W 009°14'3415.9
2015-Jul-24 13:26N 36°35' W 008°35'1916.0
2015-Jul-24 12:14N 36°30' W 008°12'1116.1
2015-Jul-24 11:33N 36°27' W 007°59'3716.3
2015-Jul-24 09:16N 36°15' W 007°15'1216.7
2015-Jul-24 08:33N 36°11' W 007°01'7216.7
2015-Jul-24 04:15N 35°59' W 005°34'  

Dump ship's entire track history